»·PEaware :: N7274H KSNA-KBUR

N7274H :: KSNA-KBUR

FLIGHT INFORMATION

Flight Status: Arrived
Operator: Privately registered:
United States
More flights under this callsign
Pilot: Thiago S. (19132)
Aircraft: CESSNA 172 SKYHAWK
(C172)
More flights by this aircraft type
Origin: KSNA John Wayne-Orange Co
United States
Destination: KBUR Bob Hope-Burbank
United States
More flights between these airports :: More routes between these airports
Route: +SLI V23 POPPR SMO125R SMO SMO311R SILEX
File this flight plan on PilotEdge
Remarks: I RATING 3
Altitude:
(Current/Filed)
4,000ft
Speed:
(Current/Filed)
100kts
Departed: 15-Feb-19 05:22 PM
Arrived: 15-Feb-19 06:00 PM
Distance/Time
Traveled:
0nm/0:38
Distance/Time
To Go:
Arrived

Flight Plot

Page will automatically refresh every two minutes.


Map Options




Map Legend


Flown Route
Filed Route
Departure Airport
Arrival Airport
Navaid (VOR, NDB)
Fix

Horizontal Profiles

Position Reports

Time Latitude Longitude Heading Altitude Ground
Speed
15-Feb-19 17:00 33.667969 -117.871468 37 59ft 0kts
15-Feb-19 17:01 33.667969 -117.871468 37 59ft 0kts
15-Feb-19 17:02 33.667969 -117.871468 37 59ft 0kts
15-Feb-19 17:03 33.667969 -117.871468 37 59ft 0kts
15-Feb-19 17:04 33.667969 -117.871468 37 59ft 0kts
15-Feb-19 17:05 33.667969 -117.871468 37 59ft 0kts
15-Feb-19 17:06 33.667969 -117.871468 37 59ft 0kts
15-Feb-19 17:07 33.667969 -117.871468 37 59ft 0kts
15-Feb-19 17:08 33.667969 -117.871468 37 59ft 0kts
15-Feb-19 17:09 33.667971 -117.871465 37 59ft 0kts
15-Feb-19 17:10 33.667975 -117.871462 37 59ft 0kts
15-Feb-19 17:11 33.667979 -117.871459 37 59ft 0kts
15-Feb-19 17:12 33.667983 -117.871455 37 59ft 0kts
15-Feb-19 17:13 33.667987 -117.871452 36 59ft 0kts
15-Feb-19 17:14 33.667990 -117.871448 36 59ft 0kts
15-Feb-19 17:15 33.668147 -117.871333 15 59ft 6kts
15-Feb-19 17:16 33.672058 -117.868303 46 59ft 24kts
15-Feb-19 17:17 33.674931 -117.866510 26 59ft 18kts
15-Feb-19 17:18 33.679646 -117.863787 337 59ft 3kts
15-Feb-19 17:19 33.679701 -117.863823 330 59ft 0kts
15-Feb-19 17:20 33.679705 -117.863825 330 59ft 0kts
15-Feb-19 17:21 33.674958 -117.867242 203 166ft 69kts
15-Feb-19 17:22 33.655480 -117.879229 222 1188ft 72kts
15-Feb-19 17:23 33.641097 -117.900852 229 1858ft 96kts
15-Feb-19 17:24 33.634341 -117.926691 289 2612ft 82kts
15-Feb-19 17:26 33.654915 -117.944958 312 3176ft 101kts
15-Feb-19 17:27 33.677297 -117.966220 319 3711ft 101kts
15-Feb-19 17:28 33.701724 -117.985818 316 4037ft 109kts
15-Feb-19 17:29 33.726604 -118.007362 319 4012ft 113kts
15-Feb-19 17:30 33.752292 -118.028554 319 3990ft 111kts
15-Feb-19 17:31 33.777483 -118.049920 318 4047ft 103kts
15-Feb-19 17:32 33.792959 -118.076468 272 4055ft 99kts
15-Feb-19 17:33 33.797881 -118.109821 279 4053ft 101kts
15-Feb-19 17:34 33.807445 -118.142570 287 3963ft 109kts
15-Feb-19 17:35 33.816550 -118.175315 281 4023ft 103kts
15-Feb-19 17:36 33.825855 -118.208324 284 3989ft 105kts
15-Feb-19 17:37 33.835960 -118.241070 289 3972ft 105kts
15-Feb-19 17:38 33.845561 -118.273268 283 3982ft 106kts
15-Feb-19 17:39 33.862273 -118.301238 316 4009ft 107kts
15-Feb-19 17:40 33.885574 -118.325152 313 3937ft 109kts
15-Feb-19 17:41 33.908070 -118.348570 309 4000ft 105kts
15-Feb-19 17:42 33.928497 -118.373492 312 4044ft 105kts
15-Feb-19 17:43 33.950991 -118.396436 307 4080ft 105kts
15-Feb-19 17:43 33.970209 -118.416519 315 4009ft 108kts
15-Feb-19 17:45 33.996946 -118.443798 317 3983ft 109kts
15-Feb-19 17:46 34.022577 -118.462878 328 4070ft 106kts
15-Feb-19 17:46 34.042790 -118.479373 313 4051ft 112kts
15-Feb-19 17:47 34.067686 -118.501081 316 4056ft 109kts
15-Feb-19 17:48 34.094161 -118.520994 323 4065ft 104kts
15-Feb-19 17:50 34.123935 -118.543773 320 4026ft 111kts
15-Feb-19 17:50 34.145233 -118.560441 321 4016ft 113kts
15-Feb-19 17:51 34.172434 -118.580732 322 3924ft 109kts
15-Feb-19 17:52 34.197146 -118.563117 67 3525ft 135kts
15-Feb-19 17:53 34.212776 -118.522015 67 2982ft 128kts
15-Feb-19 17:54 34.216108 -118.482675 111 2577ft 126kts
15-Feb-19 17:55 34.193985 -118.454049 119 2105ft 128kts
15-Feb-19 17:56 34.197118 -118.416417 83 1568ft 102kts
15-Feb-19 17:57 34.197982 -118.385162 96 1088ft 72kts
15-Feb-19 17:58 34.197882 -118.364567 99 726ft 42kts
15-Feb-19 17:59 34.197216 -118.360300 179 724ft 1kts
15-Feb-19 18:00 34.195625 -118.360347 182 724ft 0kts
15-Feb-19 18:01 34.195625 -118.360347 182 724ft 0kts
15-Feb-19 18:02 34.195625 -118.360347 182 724ft 0kts
15-Feb-19 18:03 33.667969 -117.871467 0 56ft 0kts

Navigation Log

Ident Type
Flight plan parsing failed, navigation log unavailable